Ban Gong Hu — BOEY — position and weather

sailwx.info

Track history (hours):
 
Tides and Currents Weather Stations Pressure Air Temp Water Temp Dewpoint Dewpoint Depression Visibility Wind Speed Wind Dir Waves Ship Positions

Ban Gong Hu

Last reported at 2014-Nov-27 21:05 UTC. Time now 2014-Nov-27 21:49 UTC.
Position N 37°25' E 119°57'.

Length 229 m; draft 13.1 m.

Type: Tanker. MMSI: 412371000.

Date/timePositionNaut miles runAvg speedWind from/ knotsBaromVisibWave heightAir tempDewpointWater temp
2014-Nov-27 21:05N 37°25' E 119°57'0 0.0
2014-Nov-27 20:23N 37°25' E 119°57'0 0.0
2014-Nov-27 10:17N 37°25' E 119°57'0 0.0
2014-Nov-27 09:29N 37°25' E 119°57'0 0.0
2014-Nov-27 08:17N 37°25' E 119°57'0 0.0
2014-Nov-27 07:23N 37°25' E 119°57'0 0.0
2014-Nov-27 05:13N 37°25' E 119°57'4 3.6
2014-Nov-27 04:07N 37°29' E 119°58'5 8.6
2014-Nov-27 03:33N 37°34' E 120°00'9 8.3
2014-Nov-27 02:31N 37°42' E 119°60'2 2.4
2014-Nov-27 01:29N 37°45' E 120°00'0 0.1
2014-Nov-27 00:29N 37°45' E 120°00'0 0.1
2014-Nov-26 23:28N 37°45' E 120°00'0 0.1
2014-Nov-26 22:29N 37°45' E 120°00'0 0.1
2014-Nov-26 21:33N 37°45' E 120°00'0 0.0
2014-Nov-26 20:31N 37°45' E 119°60'0 0.0
2014-Nov-26 19:33N 37°45' E 119°60'0 0.0
2014-Nov-26 18:31N 37°45' E 119°60'0 0.0
2014-Nov-26 17:26N 37°45' E 119°60'0 0.0
2014-Nov-26 16:32N 37°45' E 119°60'0 0.1
2014-Nov-26 15:28N 37°45' E 120°00'0 0.1
2014-Nov-26 14:18N 37°45' E 120°00'0 0.0
2014-Nov-26 12:29N 37°45' E 120°00'0 0.1
2014-Nov-26 11:33N 37°45' E 120°00'0 0.0
2014-Nov-26 10:31N 37°45' E 120°00'0 0.0
2014-Nov-26 09:28N 37°45' E 120°00'0 0.0
2014-Nov-26 08:30N 37°45' E 120°00'0 0.0
2014-Nov-26 07:27N 37°45' E 120°00'0 0.1
2014-Nov-26 06:33N 37°45' E 119°60'0 0.1
2014-Nov-26 05:31N 37°45' E 119°60'0 0.1
2014-Nov-26 04:33N 37°45' E 120°00'4 3.8
2014-Nov-26 03:33N 37°47' E 120°04'9 9.1
2014-Nov-26 02:33N 37°53' E 120°12'1110.8
2014-Nov-26 01:33N 38°01' E 120°22'4611.6
2014-Nov-25 21:33N 37°55' E 121°20'5512.7
2014-Nov-25 17:15N 37°42' E 122°27'1011.9
2014-Nov-25 16:27N 37°39' E 122°38'  
Track history (hours):
 
Tides and Currents Weather Stations Pressure Air Temp Water Temp Dewpoint Dewpoint Depression Visibility Wind Speed Wind Dir Waves Ship Positions

Ban Gong Hu

Last reported at 2014-Nov-27 21:05 UTC. Time now 2014-Nov-27 21:49 UTC.
Position N 37°25' E 119°57'.

Length 229 m; draft 13.1 m.

Type: Tanker. MMSI: 412371000.

Date/timePositionNaut miles runAvg speedWind from/ knotsBaromVisibWave heightAir tempDewpointWater temp
2014-Nov-27 21:05N 37°25' E 119°57'0 0.0
2014-Nov-27 20:23N 37°25' E 119°57'0 0.0
2014-Nov-27 10:17N 37°25' E 119°57'0 0.0
2014-Nov-27 09:29N 37°25' E 119°57'0 0.0
2014-Nov-27 08:17N 37°25' E 119°57'0 0.0
2014-Nov-27 07:23N 37°25' E 119°57'0 0.0
2014-Nov-27 05:13N 37°25' E 119°57'4 3.6
2014-Nov-27 04:07N 37°29' E 119°58'5 8.6
2014-Nov-27 03:33N 37°34' E 120°00'9 8.3
2014-Nov-27 02:31N 37°42' E 119°60'2 2.4
2014-Nov-27 01:29N 37°45' E 120°00'0 0.1
2014-Nov-27 00:29N 37°45' E 120°00'0 0.1
2014-Nov-26 23:28N 37°45' E 120°00'0 0.1
2014-Nov-26 22:29N 37°45' E 120°00'0 0.1
2014-Nov-26 21:33N 37°45' E 120°00'0 0.0
2014-Nov-26 20:31N 37°45' E 119°60'0 0.0
2014-Nov-26 19:33N 37°45' E 119°60'0 0.0
2014-Nov-26 18:31N 37°45' E 119°60'0 0.0
2014-Nov-26 17:26N 37°45' E 119°60'0 0.0
2014-Nov-26 16:32N 37°45' E 119°60'0 0.1
2014-Nov-26 15:28N 37°45' E 120°00'0 0.1
2014-Nov-26 14:18N 37°45' E 120°00'0 0.0
2014-Nov-26 12:29N 37°45' E 120°00'0 0.1
2014-Nov-26 11:33N 37°45' E 120°00'0 0.0
2014-Nov-26 10:31N 37°45' E 120°00'0 0.0
2014-Nov-26 09:28N 37°45' E 120°00'0 0.0
2014-Nov-26 08:30N 37°45' E 120°00'0 0.0
2014-Nov-26 07:27N 37°45' E 120°00'0 0.1
2014-Nov-26 06:33N 37°45' E 119°60'0 0.1
2014-Nov-26 05:31N 37°45' E 119°60'0 0.1
2014-Nov-26 04:33N 37°45' E 120°00'4 3.8
2014-Nov-26 03:33N 37°47' E 120°04'9 9.1
2014-Nov-26 02:33N 37°53' E 120°12'1110.8
2014-Nov-26 01:33N 38°01' E 120°22'4611.6
2014-Nov-25 21:33N 37°55' E 121°20'5512.7
2014-Nov-25 17:15N 37°42' E 122°27'1011.9
2014-Nov-25 16:27N 37°39' E 122°38'  

Dump ship's entire track history